Time;durP1;ratioP1;P1;durP2;ratioP2;P2;SDS_P1;SDS_P2;PMS_P1;PMS_P2;Temp;Humidity;BMP_temperature;BMP_pressure;BME280_temperature;BME280_humidity;BME280_pressure;Samples;Min_cycle;Max_cycle;Signal;HPM_P1;HPM_P2
2022/12/16 00:03:37;;;;;;;96.80;34.60;;;;;;;-4.31;94.77;98749.97;8388238;28;20445;-74
2022/12/16 00:07:38;;;;;;;95.70;33.22;;;;;;;-4.23;94.54;98752.31;8354431;28;20183;-75
2022/12/16 00:11:39;;;;;;;98.15;36.35;;;;;;;-4.16;94.63;98750.38;8384976;28;20491;-76
2022/12/16 00:15:40;;;;;;;108.70;36.95;;;;;;;-4.17;94.77;98756.66;8381883;28;20062;-74
2022/12/16 00:19:41;;;;;;;110.75;36.78;;;;;;;-4.16;94.53;98757.47;8393932;28;20047;-74
2022/12/16 00:23:42;;;;;;;107.05;36.92;;;;;;;-4.15;94.47;98757.25;8362429;28;20044;-75
2022/12/16 00:27:43;;;;;;;110.70;36.90;;;;;;;-4.12;94.24;98753.34;8382324;28;20048;-75
2022/12/16 00:31:46;;;;;;;100.82;35.03;;;;;;;-4.15;94.53;98754.63;8378753;28;20049;-75
2022/12/16 00:35:47;;;;;;;100.13;34.55;;;;;;;-4.12;94.60;98748.91;8386193;28;20045;-75
2022/12/16 00:39:48;;;;;;;96.72;34.72;;;;;;;-4.07;94.09;98741.13;8374689;28;20055;-74
2022/12/16 00:43:49;;;;;;;91.93;32.63;;;;;;;-4.07;94.13;98746.38;8376551;28;20067;-75
2022/12/16 00:47:50;;;;;;;99.20;34.13;;;;;;;-4.04;93.92;98745.97;8389272;28;20041;-74
2022/12/16 00:51:51;;;;;;;98.28;33.85;;;;;;;-4.01;94.18;98753.41;8359007;28;20079;-75
2022/12/16 00:56:03;;;;;;;93.45;33.72;;;;;;;-3.99;93.48;98738.19;8387157;28;20033;-74
2022/12/16 01:00:05;;;;;;;91.38;30.80;;;;;;;-3.95;93.49;98734.06;8384423;28;20433;-75
2022/12/16 01:04:06;;;;;;;86.00;32.33;;;;;;;-3.94;93.57;98725.13;8392764;28;20074;-74
2022/12/16 01:08:07;;;;;;;90.63;32.22;;;;;;;-3.95;93.35;98723.50;8379409;28;20037;-74
2022/12/16 01:12:08;;;;;;;86.20;32.83;;;;;;;-3.91;93.12;98719.38;8384121;28;20075;-75
2022/12/16 01:16:09;;;;;;;93.93;32.28;;;;;;;-3.94;93.08;98714.56;8357758;28;20044;-74
2022/12/16 01:20:10;;;;;;;90.50;30.02;;;;;;;-3.93;92.96;98710.91;8370908;28;20049;-74
2022/12/16 01:24:11;;;;;;;85.65;30.58;;;;;;;-3.89;93.06;98701.50;8377073;28;20517;-75
2022/12/16 01:28:12;;;;;;;92.18;30.10;;;;;;;-3.86;92.50;98695.78;8373778;28;20044;-74
2022/12/16 01:32:13;;;;;;;89.82;31.05;;;;;;;-3.86;92.38;98695.78;8380146;28;20049;-75
2022/12/16 01:36:14;;;;;;;88.38;31.23;;;;;;;-3.85;92.81;98707.94;8373882;28;20041;-75
2022/12/16 01:40:18;;;;;;;81.45;29.77;;;;;;;-3.83;92.45;98695.34;8380206;28;20430;-74
2022/12/16 01:44:22;;;;;;;87.95;31.70;;;;;;;-3.83;92.37;98705.88;8382835;28;20101;-74
2022/12/16 01:48:48;;;;;;;96.85;32.15;;;;;;;-3.81;92.17;98702.22;8373214;28;20048;-75
2022/12/16 01:52:53;;;;;;;87.10;30.30;;;;;;;-3.81;91.79;98675.84;8368615;28;20044;-75
2022/12/16 01:56:59;;;;;;;85.20;30.55;;;;;;;-3.84;92.15;98691.09;8372638;28;20045;-74
2022/12/16 02:01:02;;;;;;;93.50;32.03;;;;;;;-3.78;91.77;98691.22;8368945;28;20040;-75
2022/12/16 02:05:21;;;;;;;89.18;32.30;;;;;;;-3.79;92.30;98690.41;8372433;28;20190;-75
2022/12/16 02:09:23;;;;;;;90.57;32.70;;;;;;;-3.77;91.91;98677.00;8381266;28;20487;-75
2022/12/16 02:13:47;;;;;;;90.82;32.65;;;;;;;-3.75;91.85;98680.22;8372499;28;20123;-74
2022/12/16 02:18:16;;;;;;;93.30;33.70;;;;;;;-3.73;91.63;98672.88;8379102;28;20556;-75
2022/12/16 02:22:38;;;;;;;90.05;31.48;;;;;;;-3.74;91.78;98673.88;8374445;28;20048;-74
2022/12/16 02:26:55;;;;;;;103.82;32.80;;;;;;;-3.73;91.25;98683.41;8372347;28;20052;-75
2022/12/16 02:31:11;;;;;;;103.13;36.83;;;;;;;-3.74;91.46;98660.69;8375416;28;20049;-74
2022/12/16 02:35:12;;;;;;;104.45;36.72;;;;;;;-3.76;91.32;98652.22;8380850;28;20055;-75
2022/12/16 02:39:21;;;;;;;111.43;39.42;;;;;;;-3.83;91.63;98654.97;8381235;28;20084;-74
2022/12/16 02:43:42;;;;;;;119.15;39.50;;;;;;;-3.86;91.48;98653.56;8369964;28;20119;-74
2022/12/16 02:47:44;;;;;;;112.22;38.05;;;;;;;-3.97;91.47;98638.53;8259111;28;20376;-75
2022/12/16 02:51:46;;;;;;;127.50;45.35;;;;;;;-4.03;91.71;98636.81;8262704;28;20050;-74
2022/12/16 02:56:10;;;;;;;130.55;44.13;;;;;;;-3.99;92.00;98637.94;8261590;28;20061;-74
2022/12/16 03:00:13;;;;;;;125.38;43.38;;;;;;;-4.00;91.86;98641.63;8241224;28;20050;-74
2022/12/16 03:04:47;;;;;;;135.07;45.25;;;;;;;-4.01;91.64;98640.00;8262192;28;20049;-75
2022/12/16 03:08:55;;;;;;;128.20;46.70;;;;;;;-4.00;91.77;98641.63;8187295;28;20450;-74
2022/12/16 03:12:58;;;;;;;142.93;46.40;;;;;;;-4.00;91.70;98638.97;8184919;28;20075;-74
2022/12/16 03:17:00;;;;;;;157.18;47.78;;;;;;;-4.02;91.45;98627.84;8188907;29;20122;-75
2022/12/16 03:21:06;;;;;;;159.45;49.28;;;;;;;-4.03;91.77;98631.53;8183842;28;20054;-76
2022/12/16 03:25:08;;;;;;;145.00;46.05;;;;;;;-4.03;91.75;98634.16;8281586;28;20061;-74
2022/12/16 03:29:25;;;;;;;154.30;48.10;;;;;;;-4.02;91.44;98627.84;8346708;28;20056;-75
2022/12/16 03:33:37;;;;;;;143.93;43.30;;;;;;;-4.03;91.69;98618.34;8353990;28;20048;-76
2022/12/16 03:37:39;;;;;;;139.40;47.83;;;;;;;-4.07;91.55;98609.25;8341866;28;20141;-74
2022/12/16 03:41:42;;;;;;;162.45;50.92;;;;;;;-4.15;91.49;98596.41;8333764;28;20052;-75
2022/12/16 03:45:47;;;;;;;154.93;50.45;;;;;;;-4.22;91.75;98595.69;8365376;28;20123;-74
2022/12/16 03:49:48;;;;;;;157.52;51.00;;;;;;;-4.24;91.42;98596.97;8393417;28;20049;-75
2022/12/16 03:53:49;;;;;;;164.32;53.25;;;;;;;-4.30;91.87;98609.22;8334894;28;20051;-75
2022/12/16 03:57:50;;;;;;;163.82;53.03;;;;;;;-4.28;91.72;98612.41;8374642;28;20558;-74
2022/12/16 04:01:51;;;;;;;177.77;56.42;;;;;;;-4.33;91.86;98614.91;8379816;28;20099;-74
2022/12/16 04:05:53;;;;;;;164.32;52.10;;;;;;;-4.31;91.85;98623.41;8378027;28;20053;-75
2022/12/16 04:09:53;;;;;;;157.57;52.88;;;;;;;-4.28;91.72;98617.69;8383041;28;20041;-74
2022/12/16 04:31:17;;;;;;;155.95;50.97;;;;;;;-4.47;92.52;98624.03;8373078;28;20077;-74
